sensor_id;sensor_type;location;lat;lon;timestamp;temperature;humidity
67101;DHT22;54019;61.746;16.106;2023-03-20T00:00:33;22.30;27.30
67101;DHT22;54019;61.746;16.106;2023-03-20T00:02:59;22.30;27.50
67101;DHT22;54019;61.746;16.106;2023-03-20T00:05:26;22.30;27.60
67101;DHT22;54019;61.746;16.106;2023-03-20T00:07:52;22.40;27.20
67101;DHT22;54019;61.746;16.106;2023-03-20T00:10:18;22.40;26.60
67101;DHT22;54019;61.746;16.106;2023-03-20T00:12:44;22.40;26.30
67101;DHT22;54019;61.746;16.106;2023-03-20T00:15:16;22.50;26.40
67101;DHT22;54019;61.746;16.106;2023-03-20T00:17:44;22.50;26.30
67101;DHT22;54019;61.746;16.106;2023-03-20T00:20:12;22.50;26.30
67101;DHT22;54019;61.746;16.106;2023-03-20T00:22:39;22.50;26.40
67101;DHT22;54019;61.746;16.106;2023-03-20T00:25:05;22.50;26.50
67101;DHT22;54019;61.746;16.106;2023-03-20T00:27:31;22.50;26.90
67101;DHT22;54019;61.746;16.106;2023-03-20T00:29:56;22.40;27.00
67101;DHT22;54019;61.746;16.106;2023-03-20T00:32:22;22.40;27.20
67101;DHT22;54019;61.746;16.106;2023-03-20T00:34:48;22.50;27.20
67101;DHT22;54019;61.746;16.106;2023-03-20T00:37:13;22.40;27.10
67101;DHT22;54019;61.746;16.106;2023-03-20T00:39:40;22.40;27.00
67101;DHT22;54019;61.746;16.106;2023-03-20T00:42:06;22.40;27.00
67101;DHT22;54019;61.746;16.106;2023-03-20T00:44:33;22.30;27.30
67101;DHT22;54019;61.746;16.106;2023-03-20T00:47:00;22.30;27.30
67101;DHT22;54019;61.746;16.106;2023-03-20T00:49:26;22.30;27.60
67101;DHT22;54019;61.746;16.106;2023-03-20T00:51:52;22.30;27.10
67101;DHT22;54019;61.746;16.106;2023-03-20T00:54:18;22.30;27.20
67101;DHT22;54019;61.746;16.106;2023-03-20T00:56:49;22.30;26.80
67101;DHT22;54019;61.746;16.106;2023-03-20T00:59:17;22.40;26.50
67101;DHT22;54019;61.746;16.106;2023-03-20T01:01:44;22.50;26.30
67101;DHT22;54019;61.746;16.106;2023-03-20T01:04:10;22.50;26.20
67101;DHT22;54019;61.746;16.106;2023-03-20T01:06:36;22.50;26.10
67101;DHT22;54019;61.746;16.106;2023-03-20T01:09:01;22.50;26.20
67101;DHT22;54019;61.746;16.106;2023-03-20T01:11:27;22.50;26.10
67101;DHT22;54019;61.746;16.106;2023-03-20T01:13:54;22.50;26.20
67101;DHT22;54019;61.746;16.106;2023-03-20T01:16:20;22.50;26.40
67101;DHT22;54019;61.746;16.106;2023-03-20T01:18:46;22.40;26.40
67101;DHT22;54019;61.746;16.106;2023-03-20T01:21:11;22.30;26.50
67101;DHT22;54019;61.746;16.106;2023-03-20T01:23:37;22.40;26.90
67101;DHT22;54019;61.746;16.106;2023-03-20T01:26:03;22.30;27.00
67101;DHT22;54019;61.746;16.106;2023-03-20T01:28:28;22.30;27.00
67101;DHT22;54019;61.746;16.106;2023-03-20T01:30:55;22.30;27.10
67101;DHT22;54019;61.746;16.106;2023-03-20T01:33:22;22.30;26.90
67101;DHT22;54019;61.746;16.106;2023-03-20T01:35:48;22.20;26.80
67101;DHT22;54019;61.746;16.106;2023-03-20T01:38:14;22.20;26.90
67101;DHT22;54019;61.746;16.106;2023-03-20T01:40:43;22.20;26.90
67101;DHT22;54019;61.746;16.106;2023-03-20T01:43:12;22.20;26.40
67101;DHT22;54019;61.746;16.106;2023-03-20T01:45:38;22.30;26.20
67101;DHT22;54019;61.746;16.106;2023-03-20T01:48:12;22.40;26.00
67101;DHT22;54019;61.746;16.106;2023-03-20T01:50:39;22.40;25.90
67101;DHT22;54019;61.746;16.106;2023-03-20T01:53:06;22.40;25.90
67101;DHT22;54019;61.746;16.106;2023-03-20T01:55:33;22.40;25.90
67101;DHT22;54019;61.746;16.106;2023-03-20T01:57:59;22.50;26.00
67101;DHT22;54019;61.746;16.106;2023-03-20T02:00:26;22.50;26.00
67101;DHT22;54019;61.746;16.106;2023-03-20T02:02:52;22.40;26.00
67101;DHT22;54019;61.746;16.106;2023-03-20T02:05:19;22.40;26.00
67101;DHT22;54019;61.746;16.106;2023-03-20T02:07:46;22.40;26.10
67101;DHT22;54019;61.746;16.106;2023-03-20T02:10:14;22.40;26.20
67101;DHT22;54019;61.746;16.106;2023-03-20T02:12:39;22.30;26.40
67101;DHT22;54019;61.746;16.106;2023-03-20T02:15:06;22.30;26.80
67101;DHT22;54019;61.746;16.106;2023-03-20T02:17:31;22.20;26.90
67101;DHT22;54019;61.746;16.106;2023-03-20T02:19:58;22.20;27.10
67101;DHT22;54019;61.746;16.106;2023-03-20T02:22:32;22.20;26.90
67101;DHT22;54019;61.746;16.106;2023-03-20T02:28:03;22.20;26.90
67101;DHT22;54019;61.746;16.106;2023-03-20T02:30:38;22.20;26.40
67101;DHT22;54019;61.746;16.106;2023-03-20T02:33:27;22.30;26.70
67101;DHT22;54019;61.746;16.106;2023-03-20T02:38:54;22.40;25.80
67101;DHT22;54019;61.746;16.106;2023-03-20T02:41:22;22.40;25.70
67101;DHT22;54019;61.746;16.106;2023-03-20T02:43:51;22.40;25.80
67101;DHT22;54019;61.746;16.106;2023-03-20T02:46:20;22.40;25.80
67101;DHT22;54019;61.746;16.106;2023-03-20T02:48:51;22.40;25.60
67101;DHT22;54019;61.746;16.106;2023-03-20T02:51:19;22.40;25.70
67101;DHT22;54019;61.746;16.106;2023-03-20T02:53:48;22.40;25.70
67101;DHT22;54019;61.746;16.106;2023-03-20T02:56:17;22.40;25.80
67101;DHT22;54019;61.746;16.106;2023-03-20T02:58:46;22.30;25.90
67101;DHT22;54019;61.746;16.106;2023-03-20T03:01:13;22.30;26.40
67101;DHT22;54019;61.746;16.106;2023-03-20T03:03:41;22.20;26.60
67101;DHT22;54019;61.746;16.106;2023-03-20T03:06:08;22.20;26.60
67101;DHT22;54019;61.746;16.106;2023-03-20T03:08:37;22.20;26.60
67101;DHT22;54019;61.746;16.106;2023-03-20T03:11:04;22.20;26.80
67101;DHT22;54019;61.746;16.106;2023-03-20T03:13:32;22.10;26.50
67101;DHT22;54019;61.746;16.106;2023-03-20T03:15:59;22.20;26.30
67101;DHT22;54019;61.746;16.106;2023-03-20T03:18:26;22.20;26.00
67101;DHT22;54019;61.746;16.106;2023-03-20T03:20:53;22.20;25.90
67101;DHT22;54019;61.746;16.106;2023-03-20T03:23:22;22.30;25.80
67101;DHT22;54019;61.746;16.106;2023-03-20T03:25:49;22.40;25.60
67101;DHT22;54019;61.746;16.106;2023-03-20T03:28:18;22.40;25.50
67101;DHT22;54019;61.746;16.106;2023-03-20T03:30:47;22.40;25.30
67101;DHT22;54019;61.746;16.106;2023-03-20T03:33:14;22.40;25.30
67101;DHT22;54019;61.746;16.106;2023-03-20T03:35:44;22.40;25.40
67101;DHT22;54019;61.746;16.106;2023-03-20T03:38:19;22.40;25.30
67101;DHT22;54019;61.746;16.106;2023-03-20T03:40:48;22.30;25.40
67101;DHT22;54019;61.746;16.106;2023-03-20T03:43:17;22.30;26.00
67101;DHT22;54019;61.746;16.106;2023-03-20T03:45:48;22.30;26.00
67101;DHT22;54019;61.746;16.106;2023-03-20T03:48:18;22.20;25.90
67101;DHT22;54019;61.746;16.106;2023-03-20T03:50:46;22.20;26.00
67101;DHT22;54019;61.746;16.106;2023-03-20T03:53:13;22.20;26.50
67101;DHT22;54019;61.746;16.106;2023-03-20T03:55:41;22.10;26.50
67101;DHT22;54019;61.746;16.106;2023-03-20T03:58:08;22.10;26.30
67101;DHT22;54019;61.746;16.106;2023-03-20T04:00:34;22.10;26.10
67101;DHT22;54019;61.746;16.106;2023-03-20T04:03:01;22.10;26.10
67101;DHT22;54019;61.746;16.106;2023-03-20T04:05:29;22.20;25.30
67101;DHT22;54019;61.746;16.106;2023-03-20T04:07:57;22.20;25.20
67101;DHT22;54019;61.746;16.106;2023-03-20T04:10:23;22.30;25.10
67101;DHT22;54019;61.746;16.106;2023-03-20T04:12:48;22.30;25.20
67101;DHT22;54019;61.746;16.106;2023-03-20T04:15:14;22.40;25.10
67101;DHT22;54019;61.746;16.106;2023-03-20T04:17:40;22.30;25.10
67101;DHT22;54019;61.746;16.106;2023-03-20T04:20:08;22.30;25.30
67101;DHT22;54019;61.746;16.106;2023-03-20T04:22:34;22.30;25.20
67101;DHT22;54019;61.746;16.106;2023-03-20T04:25:00;22.30;25.40
67101;DHT22;54019;61.746;16.106;2023-03-20T04:27:25;22.30;25.50
67101;DHT22;54019;61.746;16.106;2023-03-20T04:29:51;22.20;25.50
67101;DHT22;54019;61.746;16.106;2023-03-20T04:32:16;22.20;25.50
67101;DHT22;54019;61.746;16.106;2023-03-20T04:34:42;22.20;26.00
67101;DHT22;54019;61.746;16.106;2023-03-20T04:37:09;22.10;26.70
67101;DHT22;54019;61.746;16.106;2023-03-20T04:39:34;22.10;26.60
67101;DHT22;54019;61.746;16.106;2023-03-20T04:42:00;22.10;26.70
67101;DHT22;54019;61.746;16.106;2023-03-20T04:44:25;22.10;26.50
67101;DHT22;54019;61.746;16.106;2023-03-20T04:46:51;22.20;26.20
67101;DHT22;54019;61.746;16.106;2023-03-20T04:49:16;22.20;25.80
67101;DHT22;54019;61.746;16.106;2023-03-20T04:51:42;22.30;25.50
67101;DHT22;54019;61.746;16.106;2023-03-20T04:54:09;22.30;25.40
67101;DHT22;54019;61.746;16.106;2023-03-20T04:56:35;22.40;25.40
67101;DHT22;54019;61.746;16.106;2023-03-20T04:59:00;22.40;25.30
67101;DHT22;54019;61.746;16.106;2023-03-20T05:01:26;22.40;25.20
67101;DHT22;54019;61.746;16.106;2023-03-20T05:03:51;22.40;25.10
67101;DHT22;54019;61.746;16.106;2023-03-20T05:06:17;22.40;25.10
67101;DHT22;54019;61.746;16.106;2023-03-20T05:08:42;22.30;25.40
67101;DHT22;54019;61.746;16.106;2023-03-20T05:11:09;22.20;25.70
67101;DHT22;54019;61.746;16.106;2023-03-20T05:13:35;22.20;25.60
67101;DHT22;54019;61.746;16.106;2023-03-20T05:16:00;22.20;25.80
67101;DHT22;54019;61.746;16.106;2023-03-20T05:18:26;22.20;26.00
67101;DHT22;54019;61.746;16.106;2023-03-20T05:20:51;22.20;26.50
67101;DHT22;54019;61.746;16.106;2023-03-20T05:23:17;22.20;26.40
67101;DHT22;54019;61.746;16.106;2023-03-20T05:25:43;22.20;26.60
67101;DHT22;54019;61.746;16.106;2023-03-20T05:28:10;22.10;26.50
67101;DHT22;54019;61.746;16.106;2023-03-20T05:30:35;22.20;26.50
67101;DHT22;54019;61.746;16.106;2023-03-20T05:33:01;22.30;26.10
67101;DHT22;54019;61.746;16.106;2023-03-20T05:35:26;22.30;25.80
67101;DHT22;54019;61.746;16.106;2023-03-20T05:37:52;22.40;25.60
67101;DHT22;54019;61.746;16.106;2023-03-20T05:40:17;22.40;25.50
67101;DHT22;54019;61.746;16.106;2023-03-20T05:42:43;22.40;25.30
67101;DHT22;54019;61.746;16.106;2023-03-20T05:45:10;22.50;25.40
67101;DHT22;54019;61.746;16.106;2023-03-20T05:47:36;22.40;25.40
67101;DHT22;54019;61.746;16.106;2023-03-20T05:50:02;22.40;25.40
67101;DHT22;54019;61.746;16.106;2023-03-20T05:52:27;22.40;25.40
67101;DHT22;54019;61.746;16.106;2023-03-20T05:54:53;22.30;25.30
67101;DHT22;54019;61.746;16.106;2023-03-20T05:57:18;22.30;25.90
67101;DHT22;54019;61.746;16.106;2023-03-20T05:59:44;22.30;25.70
67101;DHT22;54019;61.746;16.106;2023-03-20T06:02:11;22.20;25.70
67101;DHT22;54019;61.746;16.106;2023-03-20T06:04:36;22.20;25.60
67101;DHT22;54019;61.746;16.106;2023-03-20T06:07:02;22.20;25.70
67101;DHT22;54019;61.746;16.106;2023-03-20T06:09:28;22.20;25.80
67101;DHT22;54019;61.746;16.106;2023-03-20T06:11:53;22.20;25.90
67101;DHT22;54019;61.746;16.106;2023-03-20T06:14:19;22.30;26.60
67101;DHT22;54019;61.746;16.106;2023-03-20T06:16:44;22.30;26.20
67101;DHT22;54019;61.746;16.106;2023-03-20T06:19:11;22.40;26.70
67101;DHT22;54019;61.746;16.106;2023-03-20T06:21:37;22.40;26.50
67101;DHT22;54019;61.746;16.106;2023-03-20T06:24:02;22.50;26.60
67101;DHT22;54019;61.746;16.106;2023-03-20T06:26:28;22.50;26.30
67101;DHT22;54019;61.746;16.106;2023-03-20T06:28:54;22.40;26.10
67101;DHT22;54019;61.746;16.106;2023-03-20T06:31:19;22.40;26.00
67101;DHT22;54019;61.746;16.106;2023-03-20T06:33:45;22.40;25.90
67101;DHT22;54019;61.746;16.106;2023-03-20T06:36:12;22.40;25.80
67101;DHT22;54019;61.746;16.106;2023-03-20T06:38:37;22.30;25.90
67101;DHT22;54019;61.746;16.106;2023-03-20T06:41:03;22.30;26.10
67101;DHT22;54019;61.746;16.106;2023-03-20T06:43:28;22.30;26.10
67101;DHT22;54019;61.746;16.106;2023-03-20T06:45:54;22.20;26.20
67101;DHT22;54019;61.746;16.106;2023-03-20T06:48:20;22.20;26.10
67101;DHT22;54019;61.746;16.106;2023-03-20T06:50:45;22.20;26.30
67101;DHT22;54019;61.746;16.106;2023-03-20T06:53:12;22.20;26.50
67101;DHT22;54019;61.746;16.106;2023-03-20T06:55:38;22.30;26.70
67101;DHT22;54019;61.746;16.106;2023-03-20T06:58:03;22.30;26.70
67101;DHT22;54019;61.746;16.106;2023-03-20T07:00:29;22.40;27.40
67101;DHT22;54019;61.746;16.106;2023-03-20T07:02:54;22.40;28.20
67101;DHT22;54019;61.746;16.106;2023-03-20T07:05:20;22.50;28.20
67101;DHT22;54019;61.746;16.106;2023-03-20T07:07:45;22.60;28.10
67101;DHT22;54019;61.746;16.106;2023-03-20T07:10:12;22.50;27.90
67101;DHT22;54019;61.746;16.106;2023-03-20T07:12:38;22.40;27.30
67101;DHT22;54019;61.746;16.106;2023-03-20T07:15:04;22.50;27.90
67101;DHT22;54019;61.746;16.106;2023-03-20T07:17:29;22.40;27.50
67101;DHT22;54019;61.746;16.106;2023-03-20T07:19:55;22.40;27.50
67101;DHT22;54019;61.746;16.106;2023-03-20T07:22:21;22.30;27.60
67101;DHT22;54019;61.746;16.106;2023-03-20T07:24:47;22.30;27.80
67101;DHT22;54019;61.746;16.106;2023-03-20T07:27:14;22.20;27.50
67101;DHT22;54019;61.746;16.106;2023-03-20T07:29:40;22.00;26.40
67101;DHT22;54019;61.746;16.106;2023-03-20T07:32:05;22.00;26.90
67101;DHT22;54019;61.746;16.106;2023-03-20T07:34:31;21.90;26.60
67101;DHT22;54019;61.746;16.106;2023-03-20T07:36:57;22.00;25.90
67101;DHT22;54019;61.746;16.106;2023-03-20T07:39:22;22.00;26.00
67101;DHT22;54019;61.746;16.106;2023-03-20T07:41:48;22.00;26.20
67101;DHT22;54019;61.746;16.106;2023-03-20T07:44:15;22.10;26.30
67101;DHT22;54019;61.746;16.106;2023-03-20T07:46:40;22.20;26.10
67101;DHT22;54019;61.746;16.106;2023-03-20T07:49:06;22.20;26.10
67101;DHT22;54019;61.746;16.106;2023-03-20T07:51:31;22.30;26.20
67101;DHT22;54019;61.746;16.106;2023-03-20T07:53:57;22.30;26.00
67101;DHT22;54019;61.746;16.106;2023-03-20T07:56:23;22.30;26.00
67101;DHT22;54019;61.746;16.106;2023-03-20T07:58:48;22.20;25.90
67101;DHT22;54019;61.746;16.106;2023-03-20T08:01:15;22.20;25.90
67101;DHT22;54019;61.746;16.106;2023-03-20T08:03:41;22.20;26.00
67101;DHT22;54019;61.746;16.106;2023-03-20T08:06:07;22.20;26.00
67101;DHT22;54019;61.746;16.106;2023-03-20T08:08:33;22.20;26.00
67101;DHT22;54019;61.746;16.106;2023-03-20T08:10:58;22.20;26.00
67101;DHT22;54019;61.746;16.106;2023-03-20T08:13:24;22.20;26.00
67101;DHT22;54019;61.746;16.106;2023-03-20T08:15:49;22.10;26.00
67101;DHT22;54019;61.746;16.106;2023-03-20T08:18:16;22.10;26.00
67101;DHT22;54019;61.746;16.106;2023-03-20T08:20:42;22.10;26.00
67101;DHT22;54019;61.746;16.106;2023-03-20T08:23:07;22.20;26.00
67101;DHT22;54019;61.746;16.106;2023-03-20T08:25:33;22.30;26.10
67101;DHT22;54019;61.746;16.106;2023-03-20T08:27:58;22.30;26.20
67101;DHT22;54019;61.746;16.106;2023-03-20T08:30:24;22.30;26.20
67101;DHT22;54019;61.746;16.106;2023-03-20T08:32:50;22.40;26.20
67101;DHT22;54019;61.746;16.106;2023-03-20T08:35:16;22.40;25.90
67101;DHT22;54019;61.746;16.106;2023-03-20T08:37:42;22.50;25.90
67101;DHT22;54019;61.746;16.106;2023-03-20T08:40:08;22.40;25.80
67101;DHT22;54019;61.746;16.106;2023-03-20T08:42:34;22.40;25.80
67101;DHT22;54019;61.746;16.106;2023-03-20T08:44:59;22.30;26.00
67101;DHT22;54019;61.746;16.106;2023-03-20T08:47:25;22.20;26.10
67101;DHT22;54019;61.746;16.106;2023-03-20T08:49:50;22.20;26.10
67101;DHT22;54019;61.746;16.106;2023-03-20T08:52:17;22.20;26.30
67101;DHT22;54019;61.746;16.106;2023-03-20T08:54:43;22.10;26.40
67101;DHT22;54019;61.746;16.106;2023-03-20T08:57:08;22.10;27.10
67101;DHT22;54019;61.746;16.106;2023-03-20T08:59:34;22.10;27.40
67101;DHT22;54019;61.746;16.106;2023-03-20T09:01:59;22.20;27.60
67101;DHT22;54019;61.746;16.106;2023-03-20T09:04:25;22.20;28.90
67101;DHT22;54019;61.746;16.106;2023-03-20T09:06:50;22.40;30.10
67101;DHT22;54019;61.746;16.106;2023-03-20T09:09:17;22.50;28.70
67101;DHT22;54019;61.746;16.106;2023-03-20T09:11:43;22.70;28.40
67101;DHT22;54019;61.746;16.106;2023-03-20T09:14:08;22.80;28.80
67101;DHT22;54019;61.746;16.106;2023-03-20T09:16:34;22.90;29.50
67101;DHT22;54019;61.746;16.106;2023-03-20T09:19:00;22.80;29.50
67101;DHT22;54019;61.746;16.106;2023-03-20T09:21:25;22.70;30.30
67101;DHT22;54019;61.746;16.106;2023-03-20T09:23:51;22.80;31.20
67101;DHT22;54019;61.746;16.106;2023-03-20T09:26:18;22.90;30.90
67101;DHT22;54019;61.746;16.106;2023-03-20T09:28:43;22.80;31.20
67101;DHT22;54019;61.746;16.106;2023-03-20T09:31:09;22.70;31.30
67101;DHT22;54019;61.746;16.106;2023-03-20T09:33:34;22.70;31.10
67101;DHT22;54019;61.746;16.106;2023-03-20T09:36:00;22.60;31.10
67101;DHT22;54019;61.746;16.106;2023-03-20T09:38:25;22.60;30.80
67101;DHT22;54019;61.746;16.106;2023-03-20T09:40:52;22.60;30.40
67101;DHT22;54019;61.746;16.106;2023-03-20T09:46:16;22.50;29.90
67101;DHT22;54019;61.746;16.106;2023-03-20T09:48:44;22.40;29.60
67101;DHT22;54019;61.746;16.106;2023-03-20T09:51:12;22.40;29.40
67101;DHT22;54019;61.746;16.106;2023-03-20T09:53:41;22.50;29.50
67101;DHT22;54019;61.746;16.106;2023-03-20T09:56:09;22.50;29.10
67101;DHT22;54019;61.746;16.106;2023-03-20T09:58:38;22.60;29.70
67101;DHT22;54019;61.746;16.106;2023-03-20T10:01:04;22.60;28.90
67101;DHT22;54019;61.746;16.106;2023-03-20T10:03:35;22.70;28.80
67101;DHT22;54019;61.746;16.106;2023-03-20T10:06:03;22.70;28.60
67101;DHT22;54019;61.746;16.106;2023-03-20T10:08:32;22.70;28.70
67101;DHT22;54019;61.746;16.106;2023-03-20T10:11:00;22.70;28.50
67101;DHT22;54019;61.746;16.106;2023-03-20T10:13:38;22.70;28.60
67101;DHT22;54019;61.746;16.106;2023-03-20T10:16:09;22.70;28.50
67101;DHT22;54019;61.746;16.106;2023-03-20T10:18:39;22.70;28.40
67101;DHT22;54019;61.746;16.106;2023-03-20T10:21:05;22.60;28.20
67101;DHT22;54019;61.746;16.106;2023-03-20T10:23:34;22.60;28.10
67101;DHT22;54019;61.746;16.106;2023-03-20T10:26:02;22.60;28.00
67101;DHT22;54019;61.746;16.106;2023-03-20T10:28:31;22.60;28.10
67101;DHT22;54019;61.746;16.106;2023-03-20T10:31:00;22.60;27.80
67101;DHT22;54019;61.746;16.106;2023-03-20T10:33:37;22.60;27.80
67101;DHT22;54019;61.746;16.106;2023-03-20T10:36:11;22.50;27.70
67101;DHT22;54019;61.746;16.106;2023-03-20T10:38:40;22.50;27.70
67101;DHT22;54019;61.746;16.106;2023-03-20T10:41:08;22.40;28.20
67101;DHT22;54019;61.746;16.106;2023-03-20T10:43:34;22.50;28.10
67101;DHT22;54019;61.746;16.106;2023-03-20T10:46:01;22.60;28.50
67101;DHT22;54019;61.746;16.106;2023-03-20T10:48:29;22.70;28.70
67101;DHT22;54019;61.746;16.106;2023-03-20T10:50:55;22.70;28.70
67101;DHT22;54019;61.746;16.106;2023-03-20T10:53:25;22.80;28.30
67101;DHT22;54019;61.746;16.106;2023-03-20T10:55:53;22.80;28.70
67101;DHT22;54019;61.746;16.106;2023-03-20T10:58:22;22.80;28.70
67101;DHT22;54019;61.746;16.106;2023-03-20T11:00:48;22.90;28.70
67101;DHT22;54019;61.746;16.106;2023-03-20T11:03:20;22.80;28.70
67101;DHT22;54019;61.746;16.106;2023-03-20T11:05:46;22.80;28.70
67101;DHT22;54019;61.746;16.106;2023-03-20T11:08:13;22.80;28.60
67101;DHT22;54019;61.746;16.106;2023-03-20T11:10:41;22.90;28.60
67101;DHT22;54019;61.746;16.106;2023-03-20T11:13:14;22.90;28.40
67101;DHT22;54019;61.746;16.106;2023-03-20T11:15:40;22.90;28.10
67101;DHT22;54019;61.746;16.106;2023-03-20T11:18:06;22.90;27.90
67101;DHT22;54019;61.746;16.106;2023-03-20T11:20:33;22.90;28.20
67101;DHT22;54019;61.746;16.106;2023-03-20T11:23:00;22.90;28.00
67101;DHT22;54019;61.746;16.106;2023-03-20T11:25:29;22.80;27.80
67101;DHT22;54019;61.746;16.106;2023-03-20T11:27:58;22.80;27.60
67101;DHT22;54019;61.746;16.106;2023-03-20T11:30:42;22.80;27.50
67101;DHT22;54019;61.746;16.106;2023-03-20T11:33:08;22.80;27.60
67101;DHT22;54019;61.746;16.106;2023-03-20T11:35:34;22.80;27.60
67101;DHT22;54019;61.746;16.106;2023-03-20T11:38:07;22.80;27.60
67101;DHT22;54019;61.746;16.106;2023-03-20T11:40:33;22.90;27.80
67101;DHT22;54019;61.746;16.106;2023-03-20T11:43:03;23.00;28.60
67101;DHT22;54019;61.746;16.106;2023-03-20T11:45:32;23.00;27.30
67101;DHT22;54019;61.746;16.106;2023-03-20T11:47:59;23.00;26.90
67101;DHT22;54019;61.746;16.106;2023-03-20T11:50:26;23.00;26.70
67101;DHT22;54019;61.746;16.106;2023-03-20T11:52:54;23.00;27.30
67101;DHT22;54019;61.746;16.106;2023-03-20T11:55:23;23.00;26.70
67101;DHT22;54019;61.746;16.106;2023-03-20T11:57:49;23.10;26.80
67101;DHT22;54019;61.746;16.106;2023-03-20T12:00:17;23.00;26.90
67101;DHT22;54019;61.746;16.106;2023-03-20T12:02:44;23.00;26.50
67101;DHT22;54019;61.746;16.106;2023-03-20T12:05:26;22.90;26.80
67101;DHT22;54019;61.746;16.106;2023-03-20T12:07:52;22.80;25.70
67101;DHT22;54019;61.746;16.106;2023-03-20T12:10:19;22.80;25.60
67101;DHT22;54019;61.746;16.106;2023-03-20T12:12:46;22.70;26.00
67101;DHT22;54019;61.746;16.106;2023-03-20T12:15:14;22.50;26.00
67101;DHT22;54019;61.746;16.106;2023-03-20T12:17:44;22.40;25.70
67101;DHT22;54019;61.746;16.106;2023-03-20T12:20:12;22.40;25.90
67101;DHT22;54019;61.746;16.106;2023-03-20T12:22:41;22.30;25.30
67101;DHT22;54019;61.746;16.106;2023-03-20T12:25:15;22.20;25.70
67101;DHT22;54019;61.746;16.106;2023-03-20T12:27:42;22.10;25.70
67101;DHT22;54019;61.746;16.106;2023-03-20T12:30:11;22.00;25.40
67101;DHT22;54019;61.746;16.106;2023-03-20T12:32:39;22.00;25.80
67101;DHT22;54019;61.746;16.106;2023-03-20T12:35:09;22.00;25.90
67101;DHT22;54019;61.746;16.106;2023-03-20T12:37:36;22.00;25.60
67101;DHT22;54019;61.746;16.106;2023-03-20T12:40:02;22.00;25.80
67101;DHT22;54019;61.746;16.106;2023-03-20T12:42:31;21.90;25.70
67101;DHT22;54019;61.746;16.106;2023-03-20T12:45:00;21.90;25.70
67101;DHT22;54019;61.746;16.106;2023-03-20T12:47:31;21.80;25.40
67101;DHT22;54019;61.746;16.106;2023-03-20T12:50:00;21.80;25.20
67101;DHT22;54019;61.746;16.106;2023-03-20T12:52:30;21.80;25.20
67101;DHT22;54019;61.746;16.106;2023-03-20T12:57:43;21.80;25.10
67101;DHT22;54019;61.746;16.106;2023-03-20T13:00:15;21.80;25.00
67101;DHT22;54019;61.746;16.106;2023-03-20T13:02:46;21.90;25.10
67101;DHT22;54019;61.746;16.106;2023-03-20T13:05:16;21.90;25.10
67101;DHT22;54019;61.746;16.106;2023-03-20T13:07:51;21.90;25.10
67101;DHT22;54019;61.746;16.106;2023-03-20T13:10:18;21.90;25.10
67101;DHT22;54019;61.746;16.106;2023-03-20T13:12:46;21.90;25.20
67101;DHT22;54019;61.746;16.106;2023-03-20T13:15:15;21.90;25.20
67101;DHT22;54019;61.746;16.106;2023-03-20T13:17:43;21.90;25.20
67101;DHT22;54019;61.746;16.106;2023-03-20T13:20:15;21.90;25.30
67101;DHT22;54019;61.746;16.106;2023-03-20T13:22:47;21.90;25.30
67101;DHT22;54019;61.746;16.106;2023-03-20T13:25:21;21.90;25.20
67101;DHT22;54019;61.746;16.106;2023-03-20T13:27:49;21.80;25.70
67101;DHT22;54019;61.746;16.106;2023-03-20T13:30:21;21.80;25.60
67101;DHT22;54019;61.746;16.106;2023-03-20T13:32:51;21.90;25.70
67101;DHT22;54019;61.746;16.106;2023-03-20T13:35:30;22.00;25.60
67101;DHT22;54019;61.746;16.106;2023-03-20T13:38:00;22.00;25.40
67101;DHT22;54019;61.746;16.106;2023-03-20T13:40:30;22.00;25.40
67101;DHT22;54019;61.746;16.106;2023-03-20T13:42:58;22.00;25.20
67101;DHT22;54019;61.746;16.106;2023-03-20T13:45:29;22.00;25.50
67101;DHT22;54019;61.746;16.106;2023-03-20T13:47:55;22.00;25.50
67101;DHT22;54019;61.746;16.106;2023-03-20T13:50:24;22.00;25.40
67101;DHT22;54019;61.746;16.106;2023-03-20T13:52:55;22.00;25.40
67101;DHT22;54019;61.746;16.106;2023-03-20T13:55:25;22.00;25.50
67101;DHT22;54019;61.746;16.106;2023-03-20T13:58:02;22.00;25.80
67101;DHT22;54019;61.746;16.106;2023-03-20T14:00:30;21.90;25.50
67101;DHT22;54019;61.746;16.106;2023-03-20T14:03:04;21.80;25.50
67101;DHT22;54019;61.746;16.106;2023-03-20T14:05:34;21.80;25.40
67101;DHT22;54019;61.746;16.106;2023-03-20T14:08:21;21.70;25.40
67101;DHT22;54019;61.746;16.106;2023-03-20T14:10:46;21.60;24.90
67101;DHT22;54019;61.746;16.106;2023-03-20T14:13:14;21.60;24.70
67101;DHT22;54019;61.746;16.106;2023-03-20T14:15:44;21.50;24.60
67101;DHT22;54019;61.746;16.106;2023-03-20T14:18:12;21.50;24.40
67101;DHT22;54019;61.746;16.106;2023-03-20T14:20:38;21.40;24.10
67101;DHT22;54019;61.746;16.106;2023-03-20T14:23:04;21.40;24.00
67101;DHT22;54019;61.746;16.106;2023-03-20T14:25:32;21.40;23.90
67101;DHT22;54019;61.746;16.106;2023-03-20T14:27:59;21.30;23.80
67101;DHT22;54019;61.746;16.106;2023-03-20T14:30:39;21.30;23.50
67101;DHT22;54019;61.746;16.106;2023-03-20T14:33:06;21.30;23.40
67101;DHT22;54019;61.746;16.106;2023-03-20T14:35:35;21.20;23.20
67101;DHT22;54019;61.746;16.106;2023-03-20T14:40:46;21.20;23.10
67101;DHT22;54019;61.746;16.106;2023-03-20T14:43:15;21.20;23.20
67101;DHT22;54019;61.746;16.106;2023-03-20T14:45:45;21.10;22.90
67101;DHT22;54019;61.746;16.106;2023-03-20T14:48:16;21.10;23.10
67101;DHT22;54019;61.746;16.106;2023-03-20T14:50:52;21.10;22.90
67101;DHT22;54019;61.746;16.106;2023-03-20T14:53:19;21.10;22.80
67101;DHT22;54019;61.746;16.106;2023-03-20T14:55:55;21.00;22.50
67101;DHT22;54019;61.746;16.106;2023-03-20T14:58:33;21.00;22.50
67101;DHT22;54019;61.746;16.106;2023-03-20T15:01:00;20.90;22.40
67101;DHT22;54019;61.746;16.106;2023-03-20T15:03:27;20.90;22.20
67101;DHT22;54019;61.746;16.106;2023-03-20T15:05:55;21.00;22.20
67101;DHT22;54019;61.746;16.106;2023-03-20T15:08:21;20.90;22.20
67101;DHT22;54019;61.746;16.106;2023-03-20T15:10:48;20.90;22.20
67101;DHT22;54019;61.746;16.106;2023-03-20T15:13:15;20.90;22.50
67101;DHT22;54019;61.746;16.106;2023-03-20T15:15:50;21.00;22.40
67101;DHT22;54019;61.746;16.106;2023-03-20T15:18:19;21.00;22.30
67101;DHT22;54019;61.746;16.106;2023-03-20T15:20:45;21.10;22.40
67101;DHT22;54019;61.746;16.106;2023-03-20T15:23:10;21.10;22.20
67101;DHT22;54019;61.746;16.106;2023-03-20T15:25:38;21.10;21.80
67101;DHT22;54019;61.746;16.106;2023-03-20T15:28:04;21.10;21.80
67101;DHT22;54019;61.746;16.106;2023-03-20T15:30:30;21.10;21.70